createdAt,value
2022-10-26T03:55:52.854Z,7.88
2022-10-26T03:59:16.408Z,7.89
2022-10-26T04:02:39.899Z,7.89
2022-10-26T04:06:03.751Z,7.89
2022-10-26T04:09:27.399Z,7.87
2022-10-26T04:12:50.846Z,7.86
2022-10-26T04:16:14.093Z,7.85
2022-10-26T04:19:37.409Z,7.83
2022-10-26T04:23:02.250Z,7.81
2022-10-26T04:26:25.601Z,7.79
2022-10-26T04:29:48.935Z,7.77
2022-10-26T04:33:12.155Z,7.75
2022-10-26T04:36:35.683Z,7.72
2022-10-26T04:39:59.030Z,7.68
2022-10-26T04:43:22.339Z,7.64
2022-10-26T04:46:46.050Z,7.61
2022-10-26T04:50:11.854Z,7.58
2022-10-26T04:53:35.750Z,7.55
2022-10-26T04:56:59.224Z,7.52
2022-10-26T05:00:22.953Z,7.48
2022-10-26T05:03:50.157Z,7.45
2022-10-26T05:07:13.492Z,7.41
2022-10-26T05:10:36.874Z,7.38
2022-10-26T05:14:00.143Z,7.35
2022-10-26T05:17:23.428Z,7.31
2022-10-26T05:20:49.339Z,7.26
2022-10-26T05:24:12.852Z,7.22
2022-10-26T05:27:36.192Z,7.18
2022-10-26T05:30:59.737Z,7.17
2022-10-26T05:34:23.563Z,7.16
2022-10-26T05:37:47.128Z,7.16
2022-10-26T05:41:10.525Z,7.14
2022-10-26T05:44:33.779Z,7.14
2022-10-26T05:47:59.969Z,7.14
2022-10-26T05:51:25.889Z,7.15
2022-10-26T05:54:49.496Z,7.17
2022-10-26T05:58:14.356Z,7.19
2022-10-26T06:01:51.878Z,7.24
2022-10-26T06:05:22.543Z,7.29
2022-10-26T06:08:46.884Z,7.33
2022-10-26T06:12:14.505Z,7.38
2022-10-26T06:15:54.580Z,7.44
2022-10-26T06:19:33.412Z,7.49
2022-10-26T06:23:10.153Z,7.56
2022-10-26T06:26:42.864Z,7.63
2022-10-26T06:30:09.482Z,7.69
2022-10-26T06:33:33.536Z,7.76
2022-10-26T06:37:00.606Z,7.83
2022-10-26T06:40:25.438Z,7.90
2022-10-26T06:43:50.093Z,7.99
2022-10-26T06:47:21.273Z,8.10
2022-10-26T06:50:51.670Z,8.18
2022-10-26T06:54:23.074Z,8.29
2022-10-26T06:57:47.607Z,8.42
2022-10-26T07:01:12.519Z,8.51
2022-10-26T07:04:36.390Z,8.62
2022-10-26T07:07:59.784Z,8.72
2022-10-26T07:11:23.119Z,8.81
2022-10-26T07:14:46.431Z,8.91
2022-10-26T07:18:10.073Z,9.04
2022-10-26T07:21:33.928Z,9.17
2022-10-26T07:25:00.559Z,9.31
2022-10-26T07:28:26.348Z,9.44
2022-10-26T07:31:50.174Z,9.57
2022-10-26T07:35:13.991Z,9.72
2022-10-26T07:38:37.490Z,9.86
2022-10-26T07:42:01.093Z,10.03
2022-10-26T07:45:24.736Z,10.16
2022-10-26T07:48:47.968Z,10.27
2022-10-26T07:52:11.226Z,10.40
2022-10-26T07:55:34.454Z,10.56
2022-10-26T07:58:57.882Z,10.71
2022-10-26T08:02:21.349Z,10.84
2022-10-26T08:05:46.851Z,10.98
2022-10-26T08:09:10.577Z,11.12
2022-10-26T08:12:33.893Z,11.26
2022-10-26T08:16:01.513Z,11.40
2022-10-26T08:19:24.889Z,11.55
2022-10-26T08:22:48.505Z,11.73
2022-10-26T08:26:12.131Z,11.91
2022-10-26T08:29:35.422Z,12.08
2022-10-26T08:33:00.799Z,12.25
2022-10-26T08:36:25.818Z,12.44
2022-10-26T08:39:51.916Z,12.61
2022-10-26T08:43:23.894Z,12.78
2022-10-26T08:46:53.151Z,12.95
2022-10-26T08:50:24.615Z,13.10
2022-10-26T08:53:54.053Z,13.20
2022-10-26T08:57:25.202Z,13.33
2022-10-26T09:00:51.755Z,13.46
2022-10-26T09:04:15.181Z,13.60
2022-10-26T09:07:49.107Z,13.71
2022-10-26T09:11:25.282Z,13.83
2022-10-26T09:15:00.588Z,13.93
2022-10-26T09:18:34.928Z,14.05
2022-10-26T09:22:03.862Z,14.27
2022-10-26T09:25:35.846Z,14.48
2022-10-26T09:29:03.017Z,14.63
2022-10-26T09:32:34.664Z,14.74
2022-10-26T09:36:01.180Z,14.85
2022-10-26T09:39:40.329Z,14.96
2022-10-26T09:43:10.597Z,15.07
2022-10-26T09:46:42.558Z,15.21
2022-10-26T09:50:20.450Z,15.28
2022-10-26T09:53:43.915Z,15.33
2022-10-26T09:57:09.302Z,15.40
2022-10-26T10:04:19.827Z,15.68
2022-10-26T10:07:43.176Z,15.83
2022-10-26T10:11:10.496Z,16.00
2022-10-26T10:14:40.049Z,16.16
2022-10-26T10:18:03.533Z,16.28
2022-10-26T10:21:36.426Z,16.40
2022-10-26T10:25:01.796Z,16.57
2022-10-26T10:28:27.184Z,16.69
2022-10-26T10:31:56.769Z,16.81
2022-10-26T10:35:23.581Z,16.93
2022-10-26T10:38:49.427Z,17.06
2022-10-26T10:42:18.650Z,17.15
2022-10-26T10:45:47.943Z,17.20
2022-10-26T10:49:21.219Z,17.24
2022-10-26T10:52:45.117Z,17.29
2022-10-26T10:56:28.605Z,17.38
2022-10-26T11:00:02.897Z,17.49
2022-10-26T11:03:49.827Z,17.58
2022-10-26T11:07:18.013Z,17.68
2022-10-26T11:10:45.904Z,17.76
2022-10-26T11:14:14.084Z,17.87
2022-10-26T11:17:45.417Z,18.03
2022-10-26T11:21:19.029Z,18.22
2022-10-26T11:24:47.255Z,18.26
2022-10-26T11:28:18.001Z,18.26
2022-10-26T11:31:49.315Z,18.32
2022-10-26T11:35:18.225Z,18.41
2022-10-26T11:38:56.754Z,18.45
2022-10-26T11:42:26.078Z,18.50
2022-10-26T11:46:02.734Z,18.53
2022-10-26T11:49:32.489Z,18.49
2022-10-26T11:53:00.901Z,18.48
2022-10-26T11:56:31.027Z,18.39
2022-10-26T11:59:59.825Z,18.25
2022-10-26T12:03:27.328Z,18.25
2022-10-26T12:06:54.152Z,18.28
2022-10-26T12:10:26.836Z,18.27
2022-10-26T12:13:54.805Z,18.32
2022-10-26T12:17:26.035Z,18.39
2022-10-26T12:20:55.445Z,18.44
2022-10-26T12:24:29.411Z,18.47
2022-10-26T12:27:59.714Z,18.41
2022-10-26T12:31:43.134Z,18.42
2022-10-26T12:35:31.508Z,18.46
2022-10-26T12:39:00.287Z,18.55
2022-10-26T12:42:30.482Z,18.63
2022-10-26T12:46:40.718Z,18.65
2022-10-26T12:50:24.183Z,18.61
2022-10-26T12:53:52.527Z,18.56
2022-10-26T12:57:23.758Z,18.53
2022-10-26T13:01:11.959Z,18.53
2022-10-26T13:05:07.761Z,18.52
2022-10-26T13:08:41.508Z,18.49
2022-10-26T13:12:06.055Z,18.45
2022-10-26T13:15:33.891Z,18.43
2022-10-26T13:18:59.157Z,18.40
2022-10-26T13:22:23.865Z,18.35
2022-10-26T13:26:02.793Z,18.31
2022-10-26T13:29:31.807Z,18.29
2022-10-26T13:32:57.651Z,18.28
2022-10-26T13:36:30.920Z,18.23
2022-10-26T13:39:56.317Z,18.19
2022-10-26T13:43:23.202Z,18.16
2022-10-26T13:46:51.579Z,18.06
2022-10-26T13:50:19.069Z,17.97
2022-10-26T13:53:49.353Z,17.89
2022-10-26T13:57:18.977Z,17.82
2022-10-26T14:00:59.413Z,17.77
2022-10-26T14:04:27.675Z,17.70
2022-10-26T14:07:56.770Z,17.58
2022-10-26T14:11:25.311Z,17.45
2022-10-26T14:14:50.372Z,17.37
2022-10-26T14:18:19.095Z,17.29
2022-10-26T14:21:49.160Z,17.21
2022-10-26T14:25:26.751Z,17.12
2022-10-26T14:29:01.231Z,17.02
2022-10-26T14:32:28.379Z,16.94
2022-10-26T14:35:53.703Z,16.85
2022-10-26T14:39:23.640Z,16.76
2022-10-26T14:42:49.762Z,16.67
2022-10-26T14:46:16.410Z,16.57
2022-10-26T14:49:46.307Z,16.46
2022-10-26T14:53:15.944Z,16.37
2022-10-26T14:56:41.182Z,16.27
2022-10-26T15:00:15.188Z,16.17
2022-10-26T15:03:38.884Z,16.07
2022-10-26T15:07:09.490Z,15.98
2022-10-26T15:10:51.188Z,15.87
2022-10-26T15:14:17.473Z,15.75
2022-10-26T15:17:43.555Z,15.62
2022-10-26T15:21:23.015Z,15.47
2022-10-26T15:24:52.266Z,15.32
2022-10-26T15:28:22.952Z,15.19
2022-10-26T15:31:46.249Z,15.05
2022-10-26T15:35:24.017Z,14.93
2022-10-26T15:38:48.221Z,14.80
2022-10-26T15:42:14.411Z,14.67
2022-10-26T15:45:47.217Z,14.54
2022-10-26T15:49:18.581Z,14.39
2022-10-26T15:52:44.165Z,14.25
2022-10-26T15:56:14.983Z,14.09
2022-10-26T15:59:38.206Z,13.96
2022-10-26T16:03:03.229Z,13.85
2022-10-26T16:06:29.045Z,13.72
2022-10-26T16:09:53.083Z,13.59
2022-10-26T16:13:16.972Z,13.47
2022-10-26T16:16:40.679Z,13.37
2022-10-26T16:20:08.782Z,13.27
2022-10-26T16:23:33.199Z,13.16
2022-10-26T16:26:56.629Z,13.04
2022-10-26T16:30:20.799Z,12.93
2022-10-26T16:33:44.632Z,12.83
2022-10-26T16:37:08.119Z,12.75
2022-10-26T16:40:31.353Z,12.67
2022-10-26T16:43:56.675Z,12.61
2022-10-26T16:50:44.161Z,12.49
2022-10-26T16:54:07.847Z,12.44
2022-10-26T16:57:31.964Z,12.39
2022-10-26T17:00:55.224Z,12.34
2022-10-26T17:04:19.307Z,12.29
2022-10-26T17:07:42.790Z,12.25
2022-10-26T17:11:08.188Z,12.20
2022-10-26T17:14:32.111Z,12.16
2022-10-26T17:17:55.841Z,12.12
2022-10-26T17:21:27.708Z,12.07
2022-10-26T17:24:51.881Z,12.02
2022-10-26T17:28:16.379Z,11.97
2022-10-26T17:31:40.971Z,11.94
2022-10-26T17:35:07.840Z,11.90
2022-10-26T17:38:33.284Z,11.87
2022-10-26T17:41:57.549Z,11.84
2022-10-26T17:45:22.385Z,11.83
2022-10-26T17:48:47.536Z,11.81
2022-10-26T17:52:12.151Z,11.79
2022-10-26T17:55:36.858Z,11.78
2022-10-26T17:59:02.756Z,11.76
2022-10-26T18:02:28.154Z,11.76
2022-10-26T18:05:53.224Z,11.76
2022-10-26T18:09:18.972Z,11.77
2022-10-26T18:12:44.636Z,11.79
2022-10-26T18:16:13.243Z,11.78
2022-10-26T18:19:37.935Z,11.76
2022-10-26T18:23:03.571Z,11.75
2022-10-26T18:26:30.122Z,11.73
2022-10-26T18:29:54.815Z,11.70
2022-10-26T18:33:20.475Z,11.67
2022-10-26T18:36:45.418Z,11.64
2022-10-26T18:40:13.165Z,11.60
2022-10-26T18:43:43.376Z,11.55
2022-10-26T18:47:08.104Z,11.50
2022-10-26T18:50:32.403Z,11.46
2022-10-26T18:53:58.583Z,11.42
2022-10-26T18:57:26.354Z,11.38
2022-10-26T19:00:51.427Z,11.33
2022-10-26T19:04:15.848Z,11.30
2022-10-26T19:07:40.695Z,11.26
2022-10-26T19:11:06.334Z,11.22
2022-10-26T19:14:30.480Z,11.18
2022-10-26T19:17:56.037Z,11.15
2022-10-26T19:21:21.254Z,11.10
2022-10-26T19:24:46.828Z,11.05
2022-10-26T19:28:10.124Z,11.01
2022-10-26T19:31:35.818Z,10.95
2022-10-26T19:34:59.402Z,10.90
2022-10-26T19:38:23.367Z,10.85
2022-10-26T19:41:46.957Z,10.80
2022-10-26T19:45:12.153Z,10.77
2022-10-26T19:48:36.007Z,10.72
2022-10-26T19:52:00.845Z,10.68
2022-10-26T19:55:24.182Z,10.63
2022-10-26T19:58:49.920Z,10.58
2022-10-26T20:02:13.218Z,10.52
2022-10-26T20:05:41.037Z,10.47
2022-10-26T20:09:04.522Z,10.42
2022-10-26T20:12:28.187Z,10.38
2022-10-26T20:15:52.637Z,10.35
2022-10-26T20:19:15.918Z,10.32
2022-10-26T20:22:39.744Z,10.30
2022-10-26T20:26:03.335Z,10.27
2022-10-26T20:29:26.803Z,10.23
2022-10-26T20:32:50.062Z,10.21
2022-10-26T20:36:13.683Z,10.18
2022-10-26T20:39:38.502Z,10.15
2022-10-26T20:43:02.920Z,10.15
2022-10-26T20:46:28.148Z,10.13
2022-10-26T20:49:52.760Z,10.11
2022-10-26T20:53:24.880Z,10.09
2022-10-26T20:56:49.676Z,10.08
2022-10-26T21:00:15.565Z,10.05
2022-10-26T21:03:39.040Z,10.02
2022-10-26T21:07:02.463Z,10.00
2022-10-26T21:10:25.786Z,9.97
2022-10-26T21:13:49.949Z,9.94
2022-10-26T21:17:13.385Z,9.92
2022-10-26T21:20:36.579Z,9.90
2022-10-26T21:23:59.782Z,9.87
2022-10-26T21:27:23.100Z,9.86
2022-10-26T21:30:46.623Z,9.83
2022-10-26T21:34:10.167Z,9.82
2022-10-26T21:37:33.424Z,9.80
2022-10-26T21:41:04.249Z,9.77
2022-10-26T21:44:42.785Z,9.74
2022-10-26T21:48:06.686Z,9.70
2022-10-26T21:51:30.231Z,9.67
2022-10-26T21:54:53.855Z,9.66
2022-10-26T21:58:17.800Z,9.65
2022-10-26T22:01:41.315Z,9.65
2022-10-26T22:05:06.276Z,9.64
2022-10-26T22:08:29.854Z,9.65
2022-10-26T22:11:53.190Z,9.68
2022-10-26T22:15:17.193Z,9.72
2022-10-26T22:18:43.211Z,9.76
2022-10-26T22:22:06.407Z,9.80
2022-10-26T22:25:29.644Z,9.84
2022-10-26T22:28:55.490Z,9.88
2022-10-26T22:32:18.879Z,9.92
2022-10-26T22:35:42.533Z,9.94
2022-10-26T22:39:06.333Z,9.99
2022-10-26T22:42:29.945Z,10.02
2022-10-26T22:46:00.691Z,10.05
2022-10-26T22:49:24.816Z,10.08
